Time;durP1;ratioP1;P1;durP2;ratioP2;P2;SDS_P1;SDS_P2;PMS_P1;PMS_P2;Temp;Humidity;BMP_temperature;BMP_pressure;BME280_temperature;BME280_humidity;BME280_pressure;Samples;Min_cycle;Max_cycle;Signal;HPM_P1;HPM_P2
2022/05/26 02:47:00;;;;;;;1.60;0.40;;;13.40;99.90;;;;;;5609520;23;83556;-77
2022/05/26 02:49:54;;;;;;;2.20;0.20;;;13.40;99.90;;;;;;4886821;28;82624;-78
2022/05/26 02:52:31;;;;;;;0.98;0.30;;;13.30;99.90;;;;;;4905546;28;82935;-77
2022/05/26 02:55:31;;;;;;;2.92;0.22;;;13.20;99.90;;;;;;4909208;28;81724;-78
2022/05/26 02:58:23;;;;;;;1.52;0.22;;;13.30;99.90;;;;;;4909721;28;81917;-78
2022/05/26 03:01:03;;;;;;;1.10;0.20;;;13.30;99.90;;;;;;4871618;28;82191;-77
2022/05/26 03:03:54;;;;;;;2.22;0.50;;;13.40;99.90;;;;;;4908271;28;82939;-77
2022/05/26 03:06:40;;;;;;;1.92;0.40;;;13.50;99.90;;;;;;4908156;28;81768;-77
2022/05/26 03:09:07;;;;;;;1.85;0.68;;;13.60;99.90;;;;;;4908417;28;81611;-77
2022/05/26 03:11:50;;;;;;;3.92;0.50;;;13.70;99.20;;;;;;4907929;28;81696;-77
2022/05/26 03:14:18;;;;;;;1.30;0.30;;;13.70;98.40;;;;;;4908316;28;81812;-77
2022/05/26 03:16:44;;;;;;;1.48;0.20;;;13.70;98.10;;;;;;4907742;28;82552;-77
2022/05/26 03:19:10;;;;;;;1.73;0.22;;;13.70;98.20;;;;;;4907871;28;81887;-77
2022/05/26 03:21:36;;;;;;;2.10;0.13;;;13.70;98.30;;;;;;4907843;28;82069;-77
2022/05/26 03:24:02;;;;;;;1.92;0.40;;;13.70;97.40;;;;;;4907797;28;81940;-77
2022/05/26 03:26:28;;;;;;;5.22;0.30;;;13.70;96.90;;;;;;4908981;28;81752;-78
2022/05/26 03:28:54;;;;;;;2.35;0.15;;;13.70;97.00;;;;;;4908860;28;83080;-78
2022/05/26 03:31:20;;;;;;;1.35;0.10;;;13.80;97.10;;;;;;4908798;28;81673;-77
2022/05/26 03:42:00;;;;;;;4.18;0.20;;;13.80;96.50;;;;;;4905708;28;83060;-77
2022/05/26 03:44:28;;;;;;;3.00;0.20;;;13.80;96.30;;;;;;4910473;28;82130;-77
2022/05/26 03:46:54;;;;;;;1.00;0.17;;;13.90;96.30;;;;;;4911723;28;81558;-78
2022/05/26 03:49:20;;;;;;;1.08;0.20;;;13.90;95.40;;;;;;4912036;28;81685;-78
2022/05/26 03:51:46;;;;;;;1.25;0.17;;;13.90;95.20;;;;;;4912065;28;82046;-77
2022/05/26 03:54:11;;;;;;;2.47;0.20;;;13.90;95.50;;;;;;4912014;28;81642;-78
2022/05/26 03:56:37;;;;;;;0.90;0.30;;;13.90;95.60;;;;;;4912443;28;81753;-78
2022/05/26 03:59:03;;;;;;;1.13;0.32;;;13.90;95.90;;;;;;4912556;28;81302;-78
2022/05/26 04:01:28;;;;;;;1.90;0.20;;;13.90;96.40;;;;;;4911713;28;82236;-77
2022/05/26 04:03:57;;;;;;;1.70;0.17;;;13.80;97.10;;;;;;4910827;28;81764;-77
2022/05/26 04:06:23;;;;;;;1.33;0.20;;;13.80;97.50;;;;;;4910540;28;82565;-78
2022/05/26 04:08:49;;;;;;;1.77;0.20;;;13.80;96.80;;;;;;4910980;28;81978;-77
2022/05/26 04:11:15;;;;;;;1.85;0.30;;;13.70;97.90;;;;;;4911934;28;81669;-78
2022/05/26 04:13:41;;;;;;;2.38;0.17;;;13.70;99.50;;;;;;4911872;28;81732;-78
2022/05/26 04:16:07;;;;;;;1.90;0.40;;;14.20;98.40;;;;;;4911838;28;81569;-78
2022/05/26 04:18:33;;;;;;;2.88;0.60;;;14.70;94.80;;;;;;4911628;28;81661;-78
2022/05/26 04:21:07;;;;;;;2.47;0.40;;;14.70;93.80;;;;;;4912255;28;82993;-78
2022/05/26 04:23:33;;;;;;;2.13;0.30;;;14.60;94.70;;;;;;4912889;28;81958;-78
2022/05/26 04:25:59;;;;;;;1.45;0.30;;;14.60;95.20;;;;;;4912770;28;81627;-78
2022/05/26 04:28:25;;;;;;;5.72;1.05;;;15.40;93.60;;;;;;4912623;28;81799;-79
2022/05/26 04:30:50;;;;;;;1.67;0.22;;;16.20;91.10;;;;;;4912626;28;83413;-79
2022/05/26 04:33:16;;;;;;;2.35;0.30;;;16.80;89.10;;;;;;4913101;28;82688;-78
2022/05/26 04:35:42;;;;;;;0.98;0.30;;;17.50;86.00;;;;;;4912883;28;81594;-79
2022/05/26 04:38:08;;;;;;;1.60;0.45;;;17.90;82.20;;;;;;4913012;28;82204;-79
2022/05/26 04:40:33;;;;;;;1.25;0.30;;;18.20;79.10;;;;;;4913671;28;82601;-79
2022/05/26 04:42:59;;;;;;;1.77;0.30;;;18.30;79.20;;;;;;4913333;28;82768;-79
2022/05/26 04:45:25;;;;;;;2.03;0.40;;;18.80;79.80;;;;;;4913579;28;81624;-79
2022/05/26 04:47:52;;;;;;;4.10;0.47;;;19.40;74.30;;;;;;4913169;28;81544;-79
2022/05/26 04:50:18;;;;;;;2.35;0.50;;;19.20;74.30;;;;;;4913723;28;82156;-79
2022/05/26 04:52:43;;;;;;;3.75;0.40;;;18.60;75.40;;;;;;4913456;28;82315;-79
2022/05/26 04:55:10;;;;;;;1.63;0.50;;;18.10;77.20;;;;;;4912419;28;82604;-79
2022/05/26 04:57:36;;;;;;;2.65;0.40;;;17.70;78.90;;;;;;4912753;28;81812;-79
2022/05/26 05:00:04;;;;;;;1.52;0.50;;;17.60;79.30;;;;;;4911052;28;82550;-78
2022/05/26 05:02:29;;;;;;;3.53;1.00;;;17.30;79.80;;;;;;4909667;28;83840;-78
2022/05/26 05:04:55;;;;;;;3.95;0.63;;;16.90;81.50;;;;;;4910304;28;81413;-78
2022/05/26 05:07:21;;;;;;;2.10;0.50;;;16.60;82.50;;;;;;4909631;28;83486;-78
2022/05/26 05:09:47;;;;;;;1.55;0.47;;;16.50;84.10;;;;;;4910331;28;81612;-79
2022/05/26 05:12:16;;;;;;;2.28;0.43;;;16.40;85.00;;;;;;4913189;28;81307;-78
2022/05/26 05:14:44;;;;;;;4.15;0.52;;;16.30;85.80;;;;;;4911369;28;81735;-78
2022/05/26 05:17:11;;;;;;;2.35;0.32;;;16.40;86.00;;;;;;4911090;28;81984;-78
2022/05/26 05:19:37;;;;;;;1.95;0.43;;;16.40;85.70;;;;;;4910357;28;84016;-78
2022/05/26 05:22:21;;;;;;;2.28;0.30;;;16.40;85.00;;;;;;4911134;28;82306;-78
2022/05/26 05:24:56;;;;;;;2.33;0.40;;;16.40;85.70;;;;;;4910679;28;81516;-78
2022/05/26 05:27:34;;;;;;;4.63;0.40;;;16.50;85.90;;;;;;4911363;28;82274;-78
2022/05/26 05:30:04;;;;;;;4.72;0.47;;;16.70;85.30;;;;;;4911069;28;81754;-78
2022/05/26 05:32:42;;;;;;;4.15;0.43;;;16.80;83.80;;;;;;4910154;28;84729;-78
2022/05/26 05:35:21;;;;;;;1.45;0.40;;;16.90;83.20;;;;;;4910630;28;81655;-78
2022/05/26 05:37:47;;;;;;;1.42;0.28;;;17.00;82.60;;;;;;4910750;28;81177;-78
2022/05/26 05:40:13;;;;;;;1.88;0.35;;;17.10;82.40;;;;;;4910643;28;82141;-78
2022/05/26 05:42:39;;;;;;;3.53;0.50;;;17.00;82.00;;;;;;4910209;28;82231;-78
2022/05/26 05:45:06;;;;;;;4.20;0.50;;;17.00;83.90;;;;;;4909809;28;82589;-78
2022/05/26 05:47:31;;;;;;;3.25;0.50;;;16.90;83.50;;;;;;4910155;28;81978;-78
2022/05/26 05:49:57;;;;;;;1.08;0.30;;;16.90;83.40;;;;;;4906500;28;82645;-78
2022/05/26 05:52:23;;;;;;;2.67;0.45;;;16.80;83.40;;;;;;4891053;28;81770;-78
2022/05/26 05:54:50;;;;;;;1.98;0.52;;;16.60;85.00;;;;;;4888958;28;81656;-78
2022/05/26 05:57:16;;;;;;;1.67;0.57;;;16.70;84.10;;;;;;4891208;28;81723;-78
2022/05/26 05:59:42;;;;;;;2.58;0.50;;;17.00;84.50;;;;;;4891160;28;83029;-78
2022/05/26 06:02:08;;;;;;;2.00;0.40;;;17.20;83.10;;;;;;4890874;28;81926;-78
2022/05/26 06:04:41;;;;;;;3.58;0.50;;;17.20;82.90;;;;;;4902271;28;81741;-78
2022/05/26 06:07:15;;;;;;;1.92;0.47;;;17.20;81.70;;;;;;4909606;28;81838;-78
2022/05/26 06:09:41;;;;;;;3.55;0.80;;;17.20;83.40;;;;;;4909506;28;83501;-78
2022/05/26 06:12:08;;;;;;;7.20;0.82;;;17.40;82.40;;;;;;4891037;28;82157;-79
2022/05/26 06:14:34;;;;;;;1.58;0.50;;;17.20;82.10;;;;;;4910784;28;81629;-78
2022/05/26 06:17:00;;;;;;;2.15;0.45;;;17.30;81.00;;;;;;4914028;28;81639;-78
2022/05/26 06:19:26;;;;;;;1.70;0.40;;;17.70;81.10;;;;;;4907821;28;81723;-78
2022/05/26 06:21:52;;;;;;;1.10;0.30;;;18.20;78.90;;;;;;4908299;28;81815;-78
2022/05/26 06:24:22;;;;;;;2.67;0.40;;;19.00;77.30;;;;;;4896874;28;81780;-79
2022/05/26 06:26:49;;;;;;;1.80;0.45;;;19.70;75.40;;;;;;4891220;28;81304;-79
2022/05/26 06:37:28;;;;;;;3.58;0.60;;;27.20;52.60;;;;;;4890519;28;81905;-77
2022/05/26 06:39:55;;;;;;;2.10;0.60;;;26.00;52.70;;;;;;4888874;28;84816;-77
2022/05/26 06:42:24;;;;;;;1.77;0.50;;;25.10;54.90;;;;;;4892416;28;81639;-79
2022/05/26 06:44:51;;;;;;;1.35;0.60;;;25.10;55.70;;;;;;4907256;28;81381;-78
2022/05/26 06:47:21;;;;;;;4.05;0.70;;;25.70;52.90;;;;;;4896409;28;84173;-78
2022/05/26 06:49:47;;;;;;;4.03;1.63;;;26.70;52.50;;;;;;4894788;28;81322;-78
2022/05/26 06:52:15;;;;;;;3.33;0.77;;;28.10;50.10;;;;;;4900514;28;81754;-78
2022/05/26 06:54:43;;;;;;;2.95;0.88;;;30.40;49.10;;;;;;4896017;28;82100;-78
2022/05/26 06:57:10;;;;;;;2.28;1.30;;;32.00;44.90;;;;;;4907820;28;84048;-77
2022/05/26 06:59:37;;;;;;;1.88;0.98;;;33.90;40.50;;;;;;4895594;28;83145;-79
2022/05/26 07:02:08;;;;;;;2.88;1.15;;;34.20;39.00;;;;;;4896604;28;83730;-79
2022/05/26 07:04:34;;;;;;;2.38;0.88;;;33.60;40.60;;;;;;4897498;28;82339;-80
2022/05/26 07:07:01;;;;;;;2.10;1.45;;;33.40;39.00;;;;;;4893312;28;82822;-78
2022/05/26 07:09:27;;;;;;;2.03;1.48;;;32.10;41.60;;;;;;4898518;28;82732;-78
2022/05/26 07:11:53;;;;;;;3.45;1.23;;;33.00;40.70;;;;;;4895788;28;85007;-79
2022/05/26 07:14:20;;;;;;;2.63;1.05;;;31.40;41.20;;;;;;4896960;28;81953;-79
2022/05/26 07:16:46;;;;;;;2.13;1.27;;;30.60;42.10;;;;;;4897125;28;83259;-79
2022/05/26 07:19:13;;;;;;;3.00;1.08;;;31.90;43.00;;;;;;4898354;28;82333;-80
2022/05/26 07:21:43;;;;;;;3.92;1.30;;;34.70;38.60;;;;;;4900718;28;82875;-79
2022/05/26 07:24:09;;;;;;;2.10;1.42;;;37.30;36.80;;;;;;4898043;28;82889;-81
2022/05/26 07:26:35;;;;;;;7.35;2.40;;;38.70;34.50;;;;;;4897858;28;81993;-79
2022/05/26 07:29:03;;;;;;;5.13;1.77;;;39.30;33.50;;;;;;4900996;28;83781;-79
2022/05/26 07:31:28;;;;;;;2.55;1.73;;;38.90;32.50;;;;;;4903317;28;81955;-78
2022/05/26 07:33:55;;;;;;;3.60;1.58;;;39.50;32.00;;;;;;4906487;28;81832;-80
2022/05/26 07:41:57;;;;;;;4.40;2.63;;;39.60;30.50;;;;;;4901791;28;82005;-78
2022/05/26 07:44:23;;;;;;;2.50;1.77;;;40.40;31.80;;;;;;4903256;28;82240;-80
2022/05/26 07:46:49;;;;;;;2.65;2.33;;;40.70;29.70;;;;;;4905363;28;83647;-78
2022/05/26 07:49:15;;;;;;;3.38;2.13;;;40.30;30.00;;;;;;4906169;28;83244;-79
2022/05/26 07:51:40;;;;;;;3.42;2.90;;;39.30;30.70;;;;;;4907622;28;84420;-78
2022/05/26 07:54:06;;;;;;;4.65;2.25;;;38.90;30.40;;;;;;4907414;28;86762;-78
2022/05/26 07:56:36;;;;;;;3.67;1.85;;;37.70;31.20;;;;;;4893236;28;82310;-78
2022/05/26 07:59:04;;;;;;;3.85;2.05;;;38.00;31.60;;;;;;4904243;28;81670;-79
2022/05/26 08:01:30;;;;;;;2.45;2.08;;;39.20;32.60;;;;;;4907286;28;81814;-81
2022/05/26 08:03:55;;;;;;;3.72;1.90;;;40.80;31.40;;;;;;4908689;28;81675;-80
2022/05/26 08:06:21;;;;;;;2.60;1.85;;;41.90;29.60;;;;;;4902096;28;83363;-79
2022/05/26 08:08:48;;;;;;;2.65;2.33;;;42.90;29.20;;;;;;4900874;28;83405;-79
2022/05/26 08:11:14;;;;;;;4.35;2.50;;;42.90;28.70;;;;;;4895877;28;82010;-79
2022/05/26 08:13:39;;;;;;;2.92;2.38;;;41.50;28.70;;;;;;4903734;28;82850;-78
2022/05/26 08:16:06;;;;;;;2.92;1.95;;;41.20;29.90;;;;;;4912523;28;81873;-78
2022/05/26 08:18:33;;;;;;;2.85;2.65;;;41.60;30.00;;;;;;4910164;28;82947;-80
2022/05/26 08:21:10;;;;;;;3.80;2.33;;;41.70;29.20;;;;;;4908007;28;83216;-80
2022/05/26 08:23:37;;;;;;;5.80;2.33;;;40.90;28.70;;;;;;4904675;28;82570;-79
2022/05/26 08:26:03;;;;;;;2.72;2.40;;;41.20;29.40;;;;;;4898617;28;82287;-79
2022/05/26 08:28:29;;;;;;;3.90;2.88;;;41.90;28.90;;;;;;4906928;28;82506;-79
2022/05/26 08:30:55;;;;;;;2.72;1.92;;;43.50;29.40;;;;;;4902678;28;83682;-79
2022/05/26 08:33:21;;;;;;;3.25;2.40;;;42.80;28.40;;;;;;4911053;28;81867;-78
2022/05/26 08:35:47;;;;;;;3.10;1.77;;;40.50;30.10;;;;;;4907919;28;82050;-79
2022/05/26 08:38:12;;;;;;;3.28;2.20;;;40.50;30.00;;;;;;4902014;28;82958;-79
2022/05/26 08:40:43;;;;;;;2.50;2.13;;;42.10;30.50;;;;;;4903603;28;83696;-80
2022/05/26 08:43:20;;;;;;;3.17;2.83;;;43.90;29.60;;;;;;4910440;28;81779;-80
2022/05/26 08:45:48;;;;;;;3.20;2.50;;;45.20;29.40;;;;;;4907314;28;81820;-80
2022/05/26 08:48:56;;;;;;;3.78;2.75;;;45.30;27.50;;;;;;4907546;28;83625;-80
2022/05/26 08:51:54;;;;;;;2.28;2.08;;;45.90;27.80;;;;;;4848312;29;84647;-79
2022/05/26 08:54:35;;;;;;;3.65;2.80;;;47.00;28.20;;;;;;4817208;29;82119;-80
2022/05/26 08:57:03;;;;;;;4.00;3.13;;;47.20;26.80;;;;;;4894519;28;81779;-79
2022/05/26 08:59:46;;;;;;;3.40;3.10;;;45.30;27.40;;;;;;4907275;28;83935;-79
2022/05/26 09:02:34;;;;;;;3.58;3.10;;;45.10;27.90;;;;;;4908061;28;81959;-80
2022/05/26 09:05:04;;;;;;;3.20;2.90;;;45.90;26.60;;;;;;4907301;28;82873;-79
2022/05/26 09:13:21;;;;;;;4.10;3.72;;;45.90;26.80;;;;;;4908639;28;81739;-78
2022/05/26 09:15:48;;;;;;;3.00;2.70;;;45.30;26.60;;;;;;4913108;28;81509;-78
2022/05/26 09:18:18;;;;;;;3.05;2.20;;;44.00;26.30;;;;;;4912404;28;82108;-78
2022/05/26 09:20:47;;;;;;;3.00;2.40;;;44.20;28.20;;;;;;4912990;28;81744;-79
2022/05/26 09:23:25;;;;;;;6.20;3.00;;;46.00;27.50;;;;;;4912973;28;81293;-78
2022/05/26 09:26:02;;;;;;;3.95;2.42;;;46.80;27.60;;;;;;4904890;28;82063;-78
2022/05/26 09:28:30;;;;;;;5.05;2.70;;;47.40;26.80;;;;;;4893010;28;82019;-78
2022/05/26 09:31:15;;;;;;;2.85;2.00;;;44.60;27.40;;;;;;4891071;28;84094;-78
2022/05/26 09:33:40;;;;;;;3.17;2.45;;;41.10;28.50;;;;;;4894969;28;82713;-79
2022/05/26 09:36:21;;;;;;;4.93;2.15;;;39.00;29.70;;;;;;4911324;28;81642;-78
2022/05/26 09:38:47;;;;;;;4.68;2.13;;;38.70;30.20;;;;;;4892469;28;82244;-78
2022/05/26 09:41:16;;;;;;;3.50;1.73;;;37.70;32.30;;;;;;4891735;28;82956;-77
2022/05/26 09:43:51;;;;;;;4.15;1.45;;;37.70;30.00;;;;;;4892064;28;82048;-78
2022/05/26 09:46:17;;;;;;;3.80;1.55;;;39.20;30.00;;;;;;4890373;28;81725;-79
2022/05/26 09:48:46;;;;;;;4.60;1.92;;;41.80;29.30;;;;;;4893973;28;83591;-78
2022/05/26 09:51:45;;;;;;;2.20;1.65;;;43.30;28.40;;;;;;4892601;28;83676;-78
2022/05/26 09:54:29;;;;;;;3.03;1.92;;;42.80;27.60;;;;;;4912284;28;82924;-78
2022/05/26 09:56:55;;;;;;;2.45;1.60;;;42.20;28.60;;;;;;4909952;28;82643;-78
2022/05/26 09:59:23;;;;;;;4.10;1.92;;;42.20;27.60;;;;;;4908936;28;81647;-79
2022/05/26 10:01:52;;;;;;;3.22;1.75;;;41.80;28.60;;;;;;4910771;28;82292;-78
2022/05/26 10:04:47;;;;;;;4.88;2.72;;;40.30;27.50;;;;;;4908578;28;81574;-77
2022/05/26 10:07:30;;;;;;;1.90;1.38;;;39.30;28.30;;;;;;4910605;28;81693;-78
2022/05/26 10:10:19;;;;;;;1.55;1.17;;;37.10;30.30;;;;;;4910365;28;82668;-78
2022/05/26 10:12:58;;;;;;;2.65;1.55;;;35.70;31.70;;;;;;4908810;28;81675;-78
2022/05/26 10:15:40;;;;;;;1.73;1.35;;;33.70;31.10;;;;;;4909314;28;81553;-78
2022/05/26 10:18:30;;;;;;;2.08;1.63;;;31.60;35.10;;;;;;4910378;28;81536;-77
2022/05/26 10:21:16;;;;;;;1.60;1.00;;;30.00;37.00;;;;;;4900945;28;82235;-78
2022/05/26 10:24:11;;;;;;;2.47;1.08;;;28.60;39.80;;;;;;4894261;28;82747;-78
2022/05/26 10:26:57;;;;;;;2.67;1.33;;;27.50;40.60;;;;;;4902328;28;84677;-79
2022/05/26 10:30:00;;;;;;;1.77;0.60;;;26.70;42.20;;;;;;4910928;28;82592;-78
2022/05/26 10:32:54;;;;;;;0.93;0.43;;;26.30;42.60;;;;;;4905903;28;84525;-77
2022/05/26 10:35:30;;;;;;;1.23;0.32;;;25.20;45.10;;;;;;4908369;28;82317;-77
2022/05/26 10:37:55;;;;;;;1.45;0.40;;;25.20;47.20;;;;;;4901973;28;82714;-80
2022/05/26 10:40:44;;;;;;;2.80;0.25;;;25.30;47.60;;;;;;4893815;28;81757;-79
2022/05/26 10:43:20;;;;;;;1.10;0.50;;;25.50;47.30;;;;;;4898993;28;81776;-80
2022/05/26 10:45:48;;;;;;;3.38;0.47;;;25.30;45.10;;;;;;4912834;28;81587;-79
2022/05/26 10:48:31;;;;;;;2.47;0.38;;;25.30;46.40;;;;;;4909418;28;82028;-79
2022/05/26 10:51:15;;;;;;;0.85;0.20;;;25.20;47.60;;;;;;4907197;28;87994;-80
2022/05/26 10:54:11;;;;;;;4.22;1.77;;;25.00;45.60;;;;;;4913316;28;82912;-79
2022/05/26 10:57:13;;;;;;;1.10;0.22;;;24.90;47.50;;;;;;4913680;28;83431;-80
2022/05/26 10:59:57;;;;;;;1.80;0.32;;;24.80;44.50;;;;;;4877757;28;84798;-79
2022/05/26 11:02:32;;;;;;;1.30;0.20;;;24.20;49.70;;;;;;4911917;28;81915;-79
2022/05/26 11:05:42;;;;;;;4.22;0.40;;;23.90;49.40;;;;;;4915313;28;81689;-79
2022/05/26 11:08:26;;;;;;;3.95;0.60;;;23.80;51.80;;;;;;4887597;28;82441;-79
2022/05/26 11:11:02;;;;;;;1.30;0.45;;;23.80;53.10;;;;;;4914606;28;81938;-79
2022/05/26 11:13:46;;;;;;;;;;;23.60;49.00;;;;;;4913292;28;81749;-79
2022/05/26 11:19:40;;;;;;;1.00;0.22;;;23.60;51.30;;;;;;4892042;28;82792;-79
2022/05/26 11:22:11;;;;;;;2.33;0.40;;;23.50;50.30;;;;;;4895081;28;83390;-78
2022/05/26 11:24:37;;;;;;;1.25;0.28;;;23.70;49.60;;;;;;4895301;28;81724;-78
2022/05/26 11:27:32;;;;;;;2.92;0.30;;;23.60;49.60;;;;;;4909521;28;81851;-78
2022/05/26 11:30:02;;;;;;;3.28;0.40;;;23.70;51.10;;;;;;4908320;28;84146;-78
2022/05/26 11:38:15;;;;;;;;;;;23.70;51.90;;;;;;4916290;28;81327;-78
2022/05/26 11:40:55;;;;;;;1.63;0.40;;;23.80;49.40;;;;;;4914794;28;84085;-78
2022/05/26 11:43:28;;;;;;;2.03;0.60;;;23.50;48.80;;;;;;4913898;28;81917;-78
2022/05/26 11:45:54;;;;;;;1.38;0.50;;;23.40;49.50;;;;;;4913104;28;82640;-78
2022/05/26 11:48:32;;;;;;;1.25;0.28;;;23.40;51.60;;;;;;4912910;28;84695;-78
2022/05/26 11:51:03;;;;;;;1.17;0.32;;;23.40;49.10;;;;;;4913602;28;83513;-78
2022/05/26 11:53:35;;;;;;;1.27;0.20;;;23.20;52.20;;;;;;4913655;28;82386;-78
2022/05/26 11:56:18;;;;;;;1.23;0.60;;;23.30;51.70;;;;;;4913480;28;81621;-78
2022/05/26 11:58:46;;;;;;;1.63;0.30;;;23.10;50.20;;;;;;4913502;28;81772;-78
2022/05/26 12:01:36;;;;;;;1.73;0.43;;;23.10;55.70;;;;;;4912586;28;83241;-78
2022/05/26 12:04:16;;;;;;;0.90;0.30;;;23.10;52.40;;;;;;4907752;28;82574;-78
2022/05/26 12:06:59;;;;;;;1.58;0.25;;;23.00;56.10;;;;;;4914004;28;81778;-78
2022/05/26 12:09:41;;;;;;;1.40;0.20;;;23.20;52.00;;;;;;4913602;28;81796;-78
2022/05/26 12:12:29;;;;;;;1.38;0.20;;;23.00;53.70;;;;;;4913225;28;83476;-78
2022/05/26 12:15:06;;;;;;;1.10;0.43;;;23.10;52.70;;;;;;4911907;28;85421;-76
2022/05/26 12:17:38;;;;;;;1.05;0.30;;;23.20;56.00;;;;;;4910440;28;82506;-76
2022/05/26 12:20:24;;;;;;;1.65;0.40;;;23.30;51.70;;;;;;4910337;28;81651;-76
2022/05/26 12:22:49;;;;;;;0.95;0.22;;;22.70;51.70;;;;;;4909954;28;81757;-76
2022/05/26 12:25:25;;;;;;;1.73;0.28;;;22.70;51.50;;;;;;4910651;28;82171;-77
2022/05/26 12:27:54;;;;;;;;;;;22.70;52.20;;;;;;4911133;28;81780;-77
2022/05/26 12:30:34;;;;;;;3.55;0.20;;;22.80;51.50;;;;;;4911605;28;81825;-76
2022/05/26 12:33:10;;;;;;;1.35;0.20;;;23.00;53.60;;;;;;4909924;28;81798;-76
2022/05/26 12:35:58;;;;;;;1.10;0.30;;;22.90;50.80;;;;;;4909967;28;82803;-76
2022/05/26 12:38:26;;;;;;;1.85;0.30;;;23.00;55.50;;;;;;4909667;28;82577;-76
2022/05/26 12:41:07;;;;;;;2.88;0.32;;;22.90;51.10;;;;;;4909776;28;84401;-76
2022/05/26 12:43:55;;;;;;;1.70;0.50;;;22.80;50.70;;;;;;4910139;28;81766;-76
2022/05/26 12:46:37;;;;;;;;;;;22.70;55.00;;;;;;4889807;28;82344;-78
2022/05/26 12:49:18;;;;;;;2.85;0.43;;;22.60;53.40;;;;;;4911247;28;81213;-77
2022/05/26 12:51:44;;;;;;;1.30;0.20;;;22.80;53.40;;;;;;4909463;28;84313;-76
2022/05/26 12:54:19;;;;;;;2.13;0.20;;;22.70;51.60;;;;;;4909448;28;84556;-76
2022/05/26 12:56:59;;;;;;;0.75;0.22;;;22.70;54.20;;;;;;4910131;28;83471;-76
2022/05/26 12:59:29;;;;;;;2.75;0.20;;;22.70;54.60;;;;;;4909753;28;81674;-76
2022/05/26 13:01:55;;;;;;;0.75;0.22;;;22.90;53.50;;;;;;4909397;28;82025;-77
2022/05/26 13:04:34;;;;;;;0.93;0.20;;;23.00;55.60;;;;;;4909131;28;83137;-77
2022/05/26 13:07:05;;;;;;;0.95;0.22;;;22.90;50.50;;;;;;4909716;28;82022;-78
2022/05/26 13:09:45;;;;;;;2.42;0.25;;;22.80;54.60;;;;;;4909675;28;81768;-76
2022/05/26 13:12:19;;;;;;;1.48;0.22;;;22.90;53.20;;;;;;4909394;28;82331;-77
2022/05/26 13:14:51;;;;;;;2.58;0.10;;;22.80;52.10;;;;;;4909423;28;83789;-77
2022/05/26 13:17:22;;;;;;;3.78;0.10;;;22.80;52.40;;;;;;4909331;28;82224;-77
2022/05/26 13:19:49;;;;;;;1.92;0.20;;;22.70;53.10;;;;;;4909602;28;81768;-77
2022/05/26 13:22:30;;;;;;;2.28;0.30;;;22.60;52.50;;;;;;4909419;28;84333;-77
2022/05/26 13:25:00;;;;;;;0.82;0.22;;;22.60;53.40;;;;;;4909353;28;82327;-77
2022/05/26 13:27:47;;;;;;;0.50;0.10;;;22.70;53.20;;;;;;4908844;28;82930;-77
2022/05/26 13:33:09;;;;;;;1.40;0.30;;;22.80;53.00;;;;;;4909399;28;81936;-77
2022/05/26 13:35:59;;;;;;;1.27;0.17;;;23.00;55.40;;;;;;4909325;28;81644;-77
2022/05/26 13:38:36;;;;;;;0.80;0.20;;;23.10;53.80;;;;;;4909215;28;81770;-77
2022/05/26 13:41:04;;;;;;;1.60;0.57;;;23.00;53.30;;;;;;4909283;28;81691;-77
2022/05/26 13:43:34;;;;;;;2.35;0.17;;;23.00;52.60;;;;;;4908873;28;82188;-77
2022/05/26 13:46:01;;;;;;;3.40;0.10;;;23.00;53.60;;;;;;4906455;28;87264;-76
2022/05/26 13:48:35;;;;;;;2.08;0.13;;;23.00;53.30;;;;;;4906398;28;87776;-77
2022/05/26 13:51:46;;;;;;;1.38;0.22;;;23.00;53.10;;;;;;4906578;28;86813;-77
2022/05/26 13:54:35;;;;;;;2.00;0.20;;;23.00;55.00;;;;;;4906625;28;86349;-76
2022/05/26 13:57:10;;;;;;;2.25;0.32;;;23.20;53.20;;;;;;4905546;28;90477;-76
2022/05/26 13:59:41;;;;;;;2.22;0.35;;;23.00;53.40;;;;;;4906709;28;87340;-77
2022/05/26 14:02:18;;;;;;;4.63;0.30;;;22.90;53.50;;;;;;4906580;28;86675;-77
2022/05/26 14:05:08;;;;;;;1.40;0.20;;;22.70;52.60;;;;;;4906713;28;86813;-76
2022/05/26 14:07:37;;;;;;;1.70;0.40;;;22.80;54.20;;;;;;4906233;28;87639;-76
2022/05/26 14:10:19;;;;;;;1.67;0.43;;;23.00;54.70;;;;;;4905795;28;87518;-76
2022/05/26 14:13:06;;;;;;;0.75;0.20;;;23.00;52.60;;;;;;4906368;28;86752;-76
2022/05/26 14:15:49;;;;;;;2.78;0.22;;;22.80;52.60;;;;;;4905706;28;85874;-77
2022/05/26 14:18:20;;;;;;;0.88;0.10;;;22.80;53.40;;;;;;4906028;28;87161;-77
2022/05/26 14:21:01;;;;;;;2.80;0.25;;;22.90;53.70;;;;;;4905833;28;87225;-77
2022/05/26 14:23:28;;;;;;;0.93;0.15;;;22.90;52.70;;;;;;4906093;28;87590;-77
2022/05/26 14:26:35;;;;;;;3.80;0.20;;;23.00;51.50;;;;;;4906072;28;86281;-76
2022/05/26 14:29:20;;;;;;;2.75;0.20;;;22.90;51.60;;;;;;4891551;28;87651;-77
2022/05/26 14:31:59;;;;;;;1.52;0.30;;;22.90;52.10;;;;;;4905836;28;87474;-75
2022/05/26 14:34:30;;;;;;;0.75;0.10;;;22.90;52.60;;;;;;4905959;28;86661;-75
2022/05/26 14:36:57;;;;;;;1.50;0.20;;;22.90;50.70;;;;;;4906031;28;86882;-75
2022/05/26 14:39:23;;;;;;;1.42;0.20;;;23.00;52.60;;;;;;4905616;28;87560;-76
2022/05/26 14:41:51;;;;;;;0.63;0.10;;;23.10;52.10;;;;;;4905879;28;86920;-76
2022/05/26 14:44:17;;;;;;;1.42;0.20;;;23.10;51.00;;;;;;4905981;28;86919;-77
2022/05/26 14:46:46;;;;;;;1.20;0.30;;;23.10;51.70;;;;;;4904594;28;86930;-77
2022/05/26 14:49:15;;;;;;;1.20;0.43;;;23.10;51.30;;;;;;4905001;28;88142;-76
2022/05/26 14:51:42;;;;;;;1.35;0.15;;;22.90;51.40;;;;;;4905136;28;88391;-77
2022/05/26 14:56:55;;;;;;;1.27;0.13;;;23.00;52.20;;;;;;4905663;28;86808;-76
2022/05/26 14:59:21;;;;;;;1.17;0.28;;;23.00;51.20;;;;;;4905390;28;87427;-76
2022/05/26 15:01:46;;;;;;;3.08;0.22;;;23.10;52.60;;;;;;4905392;28;86912;-76
2022/05/26 15:04:12;;;;;;;1.08;0.10;;;23.20;51.40;;;;;;4905704;28;86796;-78
2022/05/26 15:06:44;;;;;;;2.00;0.20;;;23.20;48.90;;;;;;4905882;28;86044;-78
2022/05/26 15:09:17;;;;;;;1.67;0.10;;;23.20;51.60;;;;;;4905364;28;88401;-76
2022/05/26 15:11:43;;;;;;;0.95;0.20;;;23.30;50.60;;;;;;4905280;28;87659;-76
2022/05/26 15:14:09;;;;;;;1.73;0.45;;;23.20;49.00;;;;;;4904895;28;87745;-76
2022/05/26 15:16:36;;;;;;;0.82;0.20;;;23.10;49.70;;;;;;4905287;28;86891;-75
2022/05/26 15:19:04;;;;;;;0.65;0.20;;;23.10;51.70;;;;;;4905276;28;87306;-76
2022/05/26 15:21:30;;;;;;;0.88;0.30;;;23.00;50.00;;;;;;4904914;28;87350;-76
2022/05/26 15:23:56;;;;;;;4.57;1.08;;;22.90;49.20;;;;;;4905475;28;86682;-75
2022/05/26 15:26:25;;;;;;;1.40;0.40;;;22.70;49.40;;;;;;4905357;28;87050;-76
2022/05/26 15:28:53;;;;;;;1.80;0.20;;;22.60;51.30;;;;;;4905207;28;88077;-76
2022/05/26 15:31:19;;;;;;;1.55;0.10;;;22.70;50.80;;;;;;4905314;28;85966;-77
2022/05/26 15:33:46;;;;;;;1.17;0.20;;;22.70;52.30;;;;;;4906012;28;86629;-77
2022/05/26 15:36:14;;;;;;;1.17;0.20;;;22.60;50.30;;;;;;4906796;28;86674;-76
2022/05/26 15:38:43;;;;;;;1.75;0.30;;;22.50;51.00;;;;;;4905666;28;87592;-72
2022/05/26 15:41:10;;;;;;;3.50;0.40;;;22.40;54.30;;;;;;4908693;28;87305;-73
2022/05/26 15:43:36;;;;;;;3.95;0.40;;;22.50;52.30;;;;;;4908850;28;86709;-72
2022/05/26 15:46:08;;;;;;;0.75;0.13;;;22.70;55.20;;;;;;4908542;28;86282;-73
2022/05/26 15:48:34;;;;;;;1.88;0.28;;;23.00;53.10;;;;;;4908454;28;86673;-73
2022/05/26 15:51:00;;;;;;;2.42;0.32;;;23.10;52.70;;;;;;4908223;28;86926;-73
2022/05/26 15:53:29;;;;;;;2.47;0.20;;;23.30;51.70;;;;;;4908363;28;86697;-72
2022/05/26 15:55:59;;;;;;;;;;;23.20;52.00;;;;;;4908852;28;85590;-72
2022/05/26 15:58:26;;;;;;;1.17;0.10;;;23.20;51.80;;;;;;4909615;28;86605;-72
2022/05/26 16:00:54;;;;;;;0.75;0.20;;;23.20;53.40;;;;;;4908144;28;86669;-72
2022/05/26 16:03:21;;;;;;;1.83;0.22;;;23.00;51.90;;;;;;4907685;28;87764;-71
2022/05/26 16:05:47;;;;;;;1.05;0.20;;;23.00;52.80;;;;;;4908192;28;86788;-71
2022/05/26 16:08:13;;;;;;;2.38;0.30;;;23.00;51.80;;;;;;4907897;28;86690;-71
2022/05/26 16:10:39;;;;;;;4.28;0.35;;;23.00;54.40;;;;;;4908074;28;86687;-71
2022/05/26 16:13:05;;;;;;;1.88;0.22;;;23.00;52.40;;;;;;4908145;28;86713;-72
2022/05/26 16:15:31;;;;;;;1.58;0.20;;;23.00;52.80;;;;;;4908096;28;86669;-72
2022/05/26 16:17:57;;;;;;;2.25;0.47;;;23.00;52.20;;;;;;4907809;28;87232;-73
2022/05/26 16:20:23;;;;;;;1.58;0.13;;;23.00;53.00;;;;;;4908056;28;87836;-73
2022/05/26 16:22:53;;;;;;;2.60;0.20;;;23.20;53.60;;;;;;4908020;28;86787;-73
2022/05/26 16:25:20;;;;;;;2.88;0.30;;;23.40;55.80;;;;;;4907741;28;86617;-73
2022/05/26 16:27:46;;;;;;;1.38;0.10;;;23.80;52.80;;;;;;4907099;28;87629;-73
2022/05/26 16:30:15;;;;;;;3.65;0.40;;;23.80;51.50;;;;;;4907560;28;87135;-73
2022/05/26 16:32:42;;;;;;;1.52;0.20;;;23.60;55.60;;;;;;4907553;28;86884;-73
2022/05/26 16:38:00;;;;;;;2.97;0.30;;;23.20;54.70;;;;;;4907992;28;86694;-73
2022/05/26 16:40:26;;;;;;;2.78;0.20;;;23.00;55.00;;;;;;4907642;28;87024;-73
2022/05/26 16:42:53;;;;;;;4.43;0.30;;;23.00;56.40;;;;;;4907864;28;86302;-73
2022/05/26 16:45:20;;;;;;;2.10;0.32;;;23.10;57.90;;;;;;4907937;28;85817;-73